Terminal Aerodrome Forecast
Issued by NWS

Home | Current Version | Previous Version | Text Only | Print | Product List | Glossary On
Versions: 1 2 3 4 5 6 7 8 9 10 11 12 13
000
FTUS43 KGLD 241738
TAFMCK
TAF
KMCK 241738Z 2418/2518 VRB03KT P6SM SKC
     FM242000 17007KT P6SM SKC
     FM250200 13009KT P6SM SKC
     FM250500 14009KT P6SM SKC WS020/17040KT
     FM251300 13007KT P6SM FEW150
     FM251500 16008KT P6SM SCT200=

USA.gov is the U.S. government's official web portal to all federal, state and local government web resources and services.